createdAt,value
2023-04-22T00:01:59.219Z,11.00
2023-04-22T00:04:27.258Z,10.90
2023-04-22T00:06:56.883Z,10.90
2023-04-22T00:09:25.281Z,10.90
2023-04-22T00:11:53.556Z,10.80
2023-04-22T00:14:21.625Z,10.80
2023-04-22T00:16:49.572Z,10.70
2023-04-22T00:19:17.552Z,10.70
2023-04-22T00:21:47.647Z,10.70
2023-04-22T00:24:17.018Z,10.70
2023-04-22T00:26:44.932Z,10.60
2023-04-22T00:29:12.911Z,10.60
2023-04-22T00:31:40.924Z,10.60
2023-04-22T00:34:08.870Z,10.50
2023-04-22T00:36:36.777Z,10.50
2023-04-22T00:39:06.397Z,10.50
2023-04-22T00:41:36.348Z,10.40
2023-04-22T00:44:05.417Z,10.40
2023-04-22T00:46:35.583Z,10.40
2023-04-22T00:49:03.775Z,10.30
2023-04-22T00:51:31.769Z,10.30
2023-04-22T00:54:01.787Z,10.30
2023-04-22T00:56:30.955Z,10.30
2023-04-22T00:59:00.840Z,10.20
2023-04-22T01:01:29.290Z,10.20
2023-04-22T01:03:57.858Z,10.20
2023-04-22T01:06:26.841Z,10.10
2023-04-22T01:08:55.630Z,10.10
2023-04-22T01:11:23.738Z,10.10
2023-04-22T01:13:51.920Z,10.00
2023-04-22T01:16:21.681Z,10.00
2023-04-22T01:18:49.731Z,10.00
2023-04-22T01:21:19.438Z,9.90
2023-04-22T01:23:49.340Z,9.90
2023-04-22T01:26:17.306Z,9.90
2023-04-22T01:28:45.571Z,9.90
2023-04-22T01:31:13.713Z,9.80
2023-04-22T01:33:41.722Z,9.80
2023-04-22T01:36:12.834Z,9.80
2023-04-22T01:38:41.193Z,9.70
2023-04-22T01:41:10.704Z,9.70
2023-04-22T01:43:40.321Z,9.70
2023-04-22T01:46:09.471Z,9.70
2023-04-22T01:48:37.565Z,9.60
2023-04-22T01:51:05.639Z,9.60
2023-04-22T01:53:33.663Z,9.60
2023-04-22T01:56:01.740Z,9.50
2023-04-22T01:58:31.899Z,9.50
2023-04-22T02:00:59.817Z,9.50
2023-04-22T02:03:27.905Z,9.50
2023-04-22T02:05:55.955Z,9.40
2023-04-22T02:08:23.974Z,9.40
2023-04-22T02:10:51.947Z,9.40
2023-04-22T02:13:19.924Z,9.40
2023-04-22T02:15:49.920Z,9.30
2023-04-22T02:18:19.579Z,9.30
2023-04-22T02:20:47.506Z,9.30
2023-04-22T02:23:15.542Z,9.20
2023-04-22T02:25:49.565Z,9.20
2023-04-22T02:28:17.520Z,9.20
2023-04-22T02:30:47.346Z,9.20
2023-04-22T02:33:16.660Z,9.10
2023-04-22T02:35:44.855Z,9.10
2023-04-22T02:38:12.866Z,9.10
2023-04-22T02:40:40.822Z,9.10
2023-04-22T02:43:08.771Z,9.00
2023-04-22T02:45:36.758Z,9.00
2023-04-22T02:48:04.947Z,9.00
2023-04-22T02:50:34.324Z,9.00
2023-04-22T02:53:02.274Z,8.90
2023-04-22T02:55:30.274Z,8.90
2023-04-22T02:57:58.274Z,8.90
2023-04-22T03:00:26.307Z,8.90
2023-04-22T03:02:54.465Z,8.90
2023-04-22T03:05:22.588Z,8.80
2023-04-22T03:07:52.087Z,8.80
2023-04-22T03:10:20.269Z,8.80
2023-04-22T03:12:48.284Z,8.80
2023-04-22T03:15:18.769Z,8.80
2023-04-22T03:17:48.610Z,8.70
2023-04-22T03:20:16.727Z,8.70
2023-04-22T03:22:44.635Z,8.70
2023-04-22T03:25:14.134Z,8.70
2023-04-22T03:27:42.099Z,8.70
2023-04-22T03:30:10.706Z,8.70
2023-04-22T03:32:38.840Z,8.70
2023-04-22T03:35:07.720Z,8.60
2023-04-22T03:37:35.719Z,8.60
2023-04-22T03:40:04.093Z,8.60
2023-04-22T03:42:33.376Z,8.60
2023-04-22T03:45:01.336Z,8.60
2023-04-22T03:47:29.412Z,8.60
2023-04-22T03:49:57.567Z,8.60
2023-04-22T03:52:25.964Z,8.60
2023-04-22T03:54:53.940Z,8.60
2023-04-22T03:57:21.936Z,8.50
2023-04-22T03:59:51.297Z,8.50
2023-04-22T04:02:19.387Z,8.50
2023-04-22T04:04:47.572Z,8.50
2023-04-22T04:07:16.103Z,8.50
2023-04-22T04:09:44.021Z,8.50
2023-04-22T04:12:11.959Z,8.50
2023-04-22T04:14:39.896Z,8.50
2023-04-22T04:17:09.990Z,8.50
2023-04-22T04:19:39.090Z,8.50
2023-04-22T04:22:07.884Z,8.50
2023-04-22T04:24:37.049Z,8.50
2023-04-22T04:27:05.076Z,8.50
2023-04-22T04:29:33.032Z,8.50
2023-04-22T04:32:00.985Z,8.50
2023-04-22T04:34:30.274Z,8.50
2023-04-22T04:36:58.775Z,8.50
2023-04-22T04:39:28.572Z,8.50
2023-04-22T04:41:58.745Z,8.50
2023-04-22T04:44:27.486Z,8.50
2023-04-22T04:46:56.140Z,8.50
2023-04-22T04:49:24.221Z,8.50
2023-04-22T04:51:53.554Z,8.50
2023-04-22T04:54:21.557Z,8.50
2023-04-22T04:56:49.476Z,8.50
2023-04-22T04:59:17.340Z,8.50
2023-04-22T05:01:45.585Z,8.50
2023-04-22T05:04:13.850Z,8.50
2023-04-22T05:06:41.981Z,8.50
2023-04-22T05:09:11.475Z,8.50
2023-04-22T05:11:39.438Z,8.50
2023-04-22T05:14:07.460Z,8.50
2023-04-22T05:16:35.613Z,8.50
2023-04-22T05:19:03.560Z,8.50
2023-04-22T05:21:31.533Z,8.50
2023-04-22T05:23:59.488Z,8.50
2023-04-22T05:26:28.791Z,8.50
2023-04-22T05:28:56.781Z,8.50
2023-04-22T05:31:24.801Z,8.50
2023-04-22T05:33:52.735Z,8.50
2023-04-22T05:36:20.698Z,8.50
2023-04-22T05:38:48.651Z,8.50
2023-04-22T05:41:16.784Z,8.50
2023-04-22T05:43:46.365Z,8.50
2023-04-22T05:46:14.423Z,8.50
2023-04-22T05:48:42.368Z,8.50
2023-04-22T05:51:10.348Z,8.50
2023-04-22T05:53:38.408Z,8.50
2023-04-22T05:56:07.041Z,8.60
2023-04-22T05:58:35.120Z,8.60
2023-04-22T06:01:04.749Z,8.60
2023-04-22T06:03:32.914Z,8.60
2023-04-22T06:06:01.626Z,8.60
2023-04-22T06:08:31.080Z,8.60
2023-04-22T06:10:59.068Z,8.70
2023-04-22T06:13:27.803Z,8.70
2023-04-22T06:15:55.890Z,8.70
2023-04-22T06:18:26.504Z,8.70
2023-04-22T06:20:56.013Z,8.70
2023-04-22T06:23:23.967Z,8.70
2023-04-22T06:25:51.898Z,8.80
2023-04-22T06:28:19.870Z,8.80
2023-04-22T06:30:47.912Z,8.80
2023-04-22T06:33:15.967Z,8.80
2023-04-22T06:35:45.548Z,8.80
2023-04-22T06:38:13.440Z,8.90
2023-04-22T06:40:41.457Z,8.90
2023-04-22T06:43:09.458Z,8.90
2023-04-22T06:45:37.689Z,9.00
2023-04-22T06:48:05.721Z,9.00
2023-04-22T06:50:33.674Z,9.00
2023-04-22T06:53:02.909Z,9.10
2023-04-22T06:55:30.890Z,9.10
2023-04-22T06:57:58.828Z,9.20
2023-04-22T07:00:28.150Z,9.20
2023-04-22T07:02:56.202Z,9.20
2023-04-22T07:05:24.153Z,9.30
2023-04-22T07:07:52.101Z,9.30
2023-04-22T07:10:21.631Z,9.40
2023-04-22T07:12:49.543Z,9.40
2023-04-22T07:15:17.582Z,9.50
2023-04-22T07:17:45.647Z,9.50
2023-04-22T07:20:13.733Z,9.60
2023-04-22T07:22:41.737Z,9.60
2023-04-22T07:25:10.645Z,9.70
2023-04-22T07:27:40.246Z,9.70
2023-04-22T07:30:09.779Z,9.80
2023-04-22T07:32:37.714Z,9.80
2023-04-22T07:35:06.441Z,9.90
2023-04-22T07:37:34.401Z,9.90
2023-04-22T07:40:02.593Z,10.00
2023-04-22T07:42:30.924Z,10.00
2023-04-22T07:45:00.260Z,10.10
2023-04-22T07:47:28.230Z,10.10
2023-04-22T07:49:56.219Z,10.20
2023-04-22T07:52:24.200Z,10.30
2023-04-22T07:54:52.752Z,10.50
2023-04-22T07:57:22.190Z,10.60
2023-04-22T07:59:50.192Z,10.70
2023-04-22T08:02:19.673Z,10.70
2023-04-22T08:04:47.819Z,10.80
2023-04-22T08:07:32.660Z,10.90
2023-04-22T08:10:01.232Z,10.90
2023-04-22T08:12:29.275Z,11.00
2023-04-22T08:14:58.021Z,11.10
2023-04-22T08:17:27.998Z,11.10
2023-04-22T08:19:55.941Z,11.20
2023-04-22T08:22:23.971Z,11.30
2023-04-22T08:24:51.967Z,11.30
2023-04-22T08:27:21.943Z,11.40
2023-04-22T08:29:49.909Z,11.50
2023-04-22T08:32:19.696Z,11.60
2023-04-22T08:34:51.807Z,11.80
2023-04-22T08:37:21.930Z,11.80
2023-04-22T08:39:50.018Z,11.90
2023-04-22T08:42:18.255Z,12.10
2023-04-22T08:44:46.634Z,12.10
2023-04-22T08:47:15.833Z,12.20
2023-04-22T08:49:44.751Z,12.40
2023-04-22T08:52:15.483Z,12.50
2023-04-22T08:54:43.559Z,12.60
2023-04-22T08:57:12.047Z,12.70
2023-04-22T08:59:41.288Z,12.70
2023-04-22T09:02:17.616Z,12.80
2023-04-22T09:04:47.202Z,13.00
2023-04-22T09:07:23.099Z,13.10
2023-04-22T09:09:51.187Z,13.10
2023-04-22T09:12:19.316Z,13.20
2023-04-22T09:14:47.469Z,13.30
2023-04-22T09:17:18.586Z,13.30
2023-04-22T09:19:46.997Z,13.40
2023-04-22T09:22:16.323Z,13.50
2023-04-22T09:24:46.048Z,13.60
2023-04-22T09:27:14.050Z,13.60
2023-04-22T09:29:49.777Z,13.70
2023-04-22T09:32:17.804Z,13.80
2023-04-22T09:34:51.938Z,13.90
2023-04-22T09:37:24.028Z,14.00
2023-04-22T09:39:52.920Z,14.00
2023-04-22T09:42:21.514Z,14.10
2023-04-22T09:44:52.627Z,14.20
2023-04-22T09:47:21.132Z,14.20
2023-04-22T09:49:49.577Z,14.20
2023-04-22T09:52:27.135Z,14.30
2023-04-22T09:54:55.846Z,14.30
2023-04-22T09:57:24.766Z,14.50
2023-04-22T09:59:53.003Z,14.60
2023-04-22T10:02:30.777Z,14.70
2023-04-22T10:05:00.338Z,14.70
2023-04-22T10:07:31.770Z,14.70
2023-04-22T10:10:00.031Z,14.80
2023-04-22T10:12:35.371Z,14.80
2023-04-22T10:15:04.110Z,14.90
2023-04-22T10:17:34.857Z,15.00
2023-04-22T10:20:06.655Z,14.90
2023-04-22T10:22:36.717Z,15.00
2023-04-22T10:25:04.991Z,15.10
2023-04-22T10:27:32.964Z,15.10
2023-04-22T10:30:01.837Z,15.10
2023-04-22T10:32:30.797Z,15.20
2023-04-22T10:35:10.386Z,15.20
2023-04-22T10:37:43.308Z,15.30
2023-04-22T10:40:16.191Z,15.30
2023-04-22T10:42:48.356Z,15.30
2023-04-22T10:45:16.738Z,15.30
2023-04-22T10:47:46.441Z,15.30
2023-04-22T10:50:23.878Z,15.30
2023-04-22T10:52:56.267Z,15.30
2023-04-22T10:55:24.713Z,15.30
2023-04-22T10:57:54.332Z,15.30
2023-04-22T11:00:38.214Z,15.30
2023-04-22T11:03:16.946Z,15.20
2023-04-22T11:05:45.903Z,15.30
2023-04-22T11:08:24.212Z,15.30
2023-04-22T11:10:54.056Z,15.20
2023-04-22T11:13:23.247Z,15.20
2023-04-22T11:15:54.039Z,15.20
2023-04-22T11:18:24.169Z,15.10
2023-04-22T11:20:53.677Z,15.10
2023-04-22T11:23:25.313Z,15.20
2023-04-22T11:26:00.474Z,15.10
2023-04-22T11:28:28.503Z,15.10
2023-04-22T11:31:06.467Z,15.00
2023-04-22T11:33:35.458Z,14.90
2023-04-22T11:36:03.513Z,14.90
2023-04-22T11:38:33.110Z,14.90
2023-04-22T11:41:01.144Z,14.90
2023-04-22T11:43:29.075Z,14.80
2023-04-22T11:45:58.105Z,14.80
2023-04-22T11:48:26.271Z,14.70
2023-04-22T11:51:10.465Z,14.70
2023-04-22T11:53:51.610Z,14.60
2023-04-22T11:56:19.536Z,14.50
2023-04-22T11:58:48.863Z,14.50
2023-04-22T12:01:16.788Z,14.40
2023-04-22T12:03:44.963Z,14.40
2023-04-22T12:06:12.965Z,14.40
2023-04-22T12:08:44.543Z,14.30
2023-04-22T12:11:13.391Z,14.20
2023-04-22T12:13:46.843Z,14.20
2023-04-22T12:16:19.527Z,14.10
2023-04-22T12:18:50.875Z,14.00
2023-04-22T12:21:20.591Z,14.00
2023-04-22T12:23:51.689Z,13.90
2023-04-22T12:26:23.731Z,13.80
2023-04-22T12:28:54.063Z,13.70
2023-04-22T12:31:22.526Z,13.60
2023-04-22T12:33:50.807Z,13.50
2023-04-22T12:36:20.871Z,13.50
2023-04-22T12:38:51.070Z,13.40
2023-04-22T12:41:19.167Z,13.40
2023-04-22T12:43:47.709Z,13.30
2023-04-22T12:46:15.818Z,13.20
2023-04-22T12:48:43.891Z,13.20
2023-04-22T12:51:11.881Z,13.10
2023-04-22T12:53:39.847Z,13.10
2023-04-22T12:56:09.259Z,13.10
2023-04-22T12:58:37.266Z,13.10
2023-04-22T13:01:05.225Z,13.00
2023-04-22T13:03:33.320Z,13.00
2023-04-22T13:06:01.433Z,12.90
2023-04-22T13:08:29.799Z,12.90
2023-04-22T13:10:57.783Z,12.90
2023-04-22T13:13:27.193Z,12.90
2023-04-22T13:15:55.171Z,12.80
2023-04-22T13:18:23.814Z,12.80
2023-04-22T13:20:52.104Z,12.80
2023-04-22T13:23:21.762Z,12.80
2023-04-22T13:25:50.270Z,12.80
2023-04-22T13:28:18.211Z,12.80
2023-04-22T13:30:47.507Z,12.70
2023-04-22T13:33:15.631Z,12.70
2023-04-22T13:35:43.769Z,12.70
2023-04-22T13:38:11.791Z,12.70
2023-04-22T13:40:39.725Z,12.70
2023-04-22T13:43:09.398Z,12.70
2023-04-22T13:45:37.415Z,12.70
2023-04-22T13:48:06.964Z,12.70
2023-04-22T13:50:35.230Z,12.60
2023-04-22T13:53:03.968Z,12.60
2023-04-22T13:55:32.105Z,12.60
2023-04-22T13:58:01.133Z,12.60
2023-04-22T14:00:29.298Z,12.60
2023-04-22T14:02:57.561Z,12.60
2023-04-22T14:05:27.179Z,12.60
2023-04-22T14:07:55.694Z,12.60
2023-04-22T14:10:23.963Z,12.60
2023-04-22T14:12:52.485Z,12.50
2023-04-22T14:15:20.464Z,12.50
2023-04-22T14:17:49.589Z,12.50
2023-04-22T14:20:17.787Z,12.50
2023-04-22T14:22:47.162Z,12.50
2023-04-22T14:25:15.226Z,12.50
2023-04-22T14:27:43.727Z,12.40
2023-04-22T14:30:12.923Z,12.40
2023-04-22T14:32:41.010Z,12.40
2023-04-22T14:35:09.451Z,12.40
2023-04-22T14:37:37.526Z,12.40
2023-04-22T14:40:08.382Z,12.30
2023-04-22T14:42:36.895Z,12.30
2023-04-22T14:45:05.382Z,12.30
2023-04-22T14:47:33.349Z,12.30
2023-04-22T14:50:01.391Z,12.20
2023-04-22T14:52:29.442Z,12.20
2023-04-22T14:54:57.821Z,12.20
2023-04-22T14:57:28.319Z,12.20
2023-04-22T14:59:56.285Z,12.10
2023-04-22T15:02:24.489Z,12.10
2023-04-22T15:04:52.740Z,12.10
2023-04-22T15:07:20.934Z,12.10
2023-04-22T15:09:48.860Z,12.10
2023-04-22T15:12:16.894Z,12.00
2023-04-22T15:14:46.297Z,12.00
2023-04-22T15:17:14.282Z,12.00
2023-04-22T15:19:42.499Z,12.00
2023-04-22T15:22:12.085Z,11.90
2023-04-22T15:24:40.024Z,11.90
2023-04-22T15:27:08.792Z,11.80
2023-04-22T15:29:36.794Z,11.80
2023-04-22T15:32:06.689Z,11.80
2023-04-22T15:34:34.785Z,11.80
2023-04-22T15:37:02.819Z,11.70
2023-04-22T15:39:30.765Z,11.70
2023-04-22T15:41:58.662Z,11.70
2023-04-22T15:44:28.193Z,11.70
2023-04-22T15:46:57.865Z,11.60
2023-04-22T15:49:27.166Z,11.60
2023-04-22T15:51:55.178Z,11.60
2023-04-22T15:54:23.139Z,11.50
2023-04-22T15:56:51.066Z,11.50
2023-04-22T15:59:20.856Z,11.50
2023-04-22T16:01:50.785Z,11.50
2023-04-22T16:04:20.163Z,11.40
2023-04-22T16:06:50.873Z,11.50
2023-04-22T16:09:19.307Z,11.40
2023-04-22T16:11:47.277Z,11.40
2023-04-22T16:14:15.680Z,11.40
2023-04-22T16:16:44.732Z,11.40
2023-04-22T16:19:12.927Z,11.40
2023-04-22T16:21:40.889Z,11.40
2023-04-22T16:24:10.358Z,11.40
2023-04-22T16:26:38.391Z,11.40
2023-04-22T16:29:06.328Z,11.50
2023-04-22T16:31:35.030Z,11.50
2023-04-22T16:34:02.958Z,11.40
2023-04-22T16:36:31.029Z,11.40
2023-04-22T16:38:58.959Z,11.40
2023-04-22T16:41:28.534Z,11.50
2023-04-22T16:43:56.435Z,11.50
2023-04-22T16:46:24.434Z,11.50
2023-04-22T16:48:52.342Z,11.50
2023-04-22T16:51:20.299Z,11.50
2023-04-22T16:53:48.552Z,11.50
2023-04-22T16:56:16.487Z,11.50
2023-04-22T16:58:45.854Z,11.50
2023-04-22T17:01:13.973Z,11.60
2023-04-22T17:03:42.197Z,11.50
2023-04-22T17:06:15.286Z,11.60
2023-04-22T17:08:43.311Z,11.60
2023-04-22T17:11:12.216Z,11.60
2023-04-22T17:13:41.126Z,11.60
2023-04-22T17:16:11.067Z,11.60
2023-04-22T17:18:39.017Z,11.60
2023-04-22T17:21:07.141Z,11.60
2023-04-22T17:23:36.043Z,11.70
2023-04-22T17:26:03.992Z,11.70
2023-04-22T17:28:31.922Z,11.70
2023-04-22T17:31:00.090Z,11.70
2023-04-22T17:33:30.116Z,11.70
2023-04-22T17:35:58.109Z,11.70
2023-04-22T17:38:26.188Z,11.70
2023-04-22T17:40:54.347Z,11.70
2023-04-22T17:43:22.336Z,11.70
2023-04-22T17:45:50.262Z,11.70
2023-04-22T17:48:18.202Z,11.70
2023-04-22T17:50:47.620Z,11.70
2023-04-22T17:53:15.728Z,11.70
2023-04-22T17:55:44.520Z,11.70
2023-04-22T17:58:12.980Z,11.70
2023-04-22T18:00:40.947Z,11.70
2023-04-22T18:03:09.151Z,11.70
2023-04-22T18:05:42.924Z,11.70
2023-04-22T18:08:12.273Z,11.70
2023-04-22T18:10:40.990Z,11.70
2023-04-22T18:13:08.970Z,11.70
2023-04-22T18:15:36.834Z,11.60
2023-04-22T18:18:05.102Z,11.60
2023-04-22T18:20:34.104Z,11.60
2023-04-22T18:23:02.072Z,11.60
2023-04-22T18:25:31.418Z,11.50
2023-04-22T18:27:59.400Z,11.60
2023-04-22T18:30:27.416Z,11.50
2023-04-22T18:32:55.570Z,11.50
2023-04-22T18:35:23.549Z,11.40
2023-04-22T18:37:51.628Z,11.40
2023-04-22T18:40:21.157Z,11.40
2023-04-22T18:42:50.553Z,11.40
2023-04-22T18:45:18.531Z,11.30
2023-04-22T18:47:47.146Z,11.30
2023-04-22T18:50:15.240Z,11.30
2023-04-22T18:52:43.729Z,11.20
2023-04-22T18:55:11.714Z,11.20
2023-04-22T18:57:39.600Z,11.20
2023-04-22T19:00:10.918Z,11.10
2023-04-22T19:02:41.439Z,11.10
2023-04-22T19:05:11.151Z,11.00
2023-04-22T19:07:40.834Z,11.00
2023-04-22T19:10:10.746Z,10.90
2023-04-22T19:12:38.718Z,10.90
2023-04-22T19:15:09.706Z,10.90
2023-04-22T19:17:38.080Z,10.80
2023-04-22T19:20:08.201Z,10.80
2023-04-22T19:22:36.326Z,10.70
2023-04-22T19:25:06.418Z,10.70
2023-04-22T19:27:34.582Z,10.70
2023-04-22T19:30:02.632Z,10.70
2023-04-22T19:32:32.401Z,10.60
2023-04-22T19:35:03.652Z,10.50
2023-04-22T19:37:32.108Z,10.50
2023-04-22T19:40:00.053Z,10.50
2023-04-22T19:42:29.079Z,10.40
2023-04-22T19:44:59.009Z,10.40
2023-04-22T19:47:27.348Z,10.40
2023-04-22T19:49:57.960Z,10.30
2023-04-22T19:52:26.178Z,10.30
2023-04-22T19:54:56.150Z,10.30
2023-04-22T19:57:24.823Z,10.30
2023-04-22T19:59:54.060Z,10.30
2023-04-22T20:02:23.058Z,10.20
2023-04-22T20:04:51.381Z,10.20
2023-04-22T20:07:21.084Z,10.10
2023-04-22T20:09:50.399Z,10.10
2023-04-22T20:12:18.764Z,10.00
2023-04-22T20:14:47.064Z,10.10
2023-04-22T20:17:15.802Z,10.10
2023-04-22T20:19:45.027Z,10.00
2023-04-22T20:22:15.486Z,10.00
2023-04-22T20:24:46.631Z,10.00
2023-04-22T20:27:17.066Z,10.00
2023-04-22T20:29:46.194Z,9.90
2023-04-22T20:32:14.414Z,9.90
2023-04-22T20:34:42.788Z,9.90
2023-04-22T20:37:13.109Z,9.90
2023-04-22T20:39:44.593Z,9.90
2023-04-22T20:42:13.074Z,9.90
2023-04-22T20:44:41.299Z,9.90
2023-04-22T20:47:09.543Z,9.90
2023-04-22T20:49:40.395Z,9.90
2023-04-22T20:52:09.154Z,9.90
2023-04-22T20:54:37.552Z,9.80
2023-04-22T20:57:08.027Z,9.80
2023-04-22T20:59:36.331Z,9.80
2023-04-22T21:02:06.644Z,9.80
2023-04-22T21:04:35.639Z,9.80
2023-04-22T21:07:07.003Z,9.80
2023-04-22T21:09:35.530Z,9.70
2023-04-22T21:12:03.991Z,9.70
2023-04-22T21:14:33.871Z,9.70
2023-04-22T21:17:04.698Z,9.70
2023-04-22T21:19:34.355Z,9.70
2023-04-22T21:22:06.010Z,9.70
2023-04-22T21:24:35.984Z,9.60
2023-04-22T21:27:04.518Z,9.60
2023-04-22T21:29:34.669Z,9.60
2023-04-22T21:32:09.480Z,9.60
2023-04-22T21:34:38.272Z,9.60
2023-04-22T21:37:07.757Z,9.50
2023-04-22T21:39:36.040Z,9.50
2023-04-22T21:42:07.618Z,9.50
2023-04-22T21:44:38.390Z,9.50
2023-04-22T21:47:06.724Z,9.50
2023-04-22T21:49:34.753Z,9.50
2023-04-22T21:52:02.796Z,9.50
2023-04-22T21:54:30.828Z,9.50
2023-04-22T21:56:58.805Z,9.40
2023-04-22T21:59:26.769Z,9.40
2023-04-22T22:01:56.213Z,9.40
2023-04-22T22:04:24.289Z,9.40
2023-04-22T22:06:52.293Z,9.40
2023-04-22T22:09:20.321Z,9.40
2023-04-22T22:11:48.402Z,9.40
2023-04-22T22:14:16.509Z,9.40
2023-04-22T22:16:44.470Z,9.40
2023-04-22T22:19:14.408Z,9.40
2023-04-22T22:21:42.386Z,9.30
2023-04-22T22:24:10.563Z,9.40
2023-04-22T22:26:43.274Z,9.30
2023-04-22T22:29:15.454Z,9.40
2023-04-22T22:31:43.960Z,9.30
2023-04-22T22:34:13.308Z,9.30
2023-04-22T22:36:41.568Z,9.30
2023-04-22T22:39:11.920Z,9.30
2023-04-22T22:41:41.098Z,9.30
2023-04-22T22:44:11.172Z,9.30
2023-04-22T22:46:40.249Z,9.30
2023-04-22T22:49:08.330Z,9.30
2023-04-22T22:51:38.334Z,9.30
2023-04-22T22:54:06.760Z,9.30
2023-04-22T22:56:34.902Z,9.30
2023-04-22T22:59:02.853Z,9.30
2023-04-22T23:01:30.936Z,9.30
2023-04-22T23:03:59.107Z,9.30
2023-04-22T23:06:27.865Z,9.30
2023-04-22T23:08:57.326Z,9.30
2023-04-22T23:11:25.445Z,9.30
2023-04-22T23:13:53.499Z,9.30
2023-04-22T23:16:21.900Z,9.30
2023-04-22T23:18:51.212Z,9.30
2023-04-22T23:21:20.887Z,9.30
2023-04-22T23:23:49.004Z,9.30
2023-04-22T23:26:18.829Z,9.30
2023-04-22T23:28:47.515Z,9.30
2023-04-22T23:31:18.207Z,9.30
2023-04-22T23:33:50.531Z,9.30
2023-04-22T23:36:19.769Z,9.20
2023-04-22T23:38:47.743Z,9.20
2023-04-22T23:41:15.707Z,9.20
2023-04-22T23:43:44.948Z,9.20
2023-04-22T23:46:13.336Z,9.20
2023-04-22T23:48:41.454Z,9.20
2023-04-22T23:51:09.469Z,9.20
2023-04-22T23:53:37.415Z,9.20
2023-04-22T23:56:06.000Z,9.20
2023-04-22T23:58:34.341Z,9.20
